sensor_id;sensor_type;location;lat;lon;timestamp;pressure;altitude;pressure_sealevel;temperature;humidity
21096;BME280;10706;49.036;12.112;2023-03-03T00:01:37;97795.00;;;0.89;81.05
21096;BME280;10706;49.036;12.112;2023-03-03T00:04:03;97799.16;;;0.84;81.89
21096;BME280;10706;49.036;12.112;2023-03-03T00:06:28;97804.72;;;0.81;81.94
21096;BME280;10706;49.036;12.112;2023-03-03T00:08:55;97806.53;;;0.88;81.91
21096;BME280;10706;49.036;12.112;2023-03-03T00:11:21;97805.69;;;0.88;81.41
21096;BME280;10706;49.036;12.112;2023-03-03T00:13:50;97805.41;;;0.83;81.65
21096;BME280;10706;49.036;12.112;2023-03-03T00:16:28;97807.06;;;0.75;82.10
21096;BME280;10706;49.036;12.112;2023-03-03T00:18:56;97799.53;;;0.72;82.25
21096;BME280;10706;49.036;12.112;2023-03-03T00:21:32;97812.34;;;0.75;82.23
21096;BME280;10706;49.036;12.112;2023-03-03T00:24:20;97807.41;;;0.72;81.87
21096;BME280;10706;49.036;12.112;2023-03-03T00:27:00;97800.97;;;0.75;82.01
21096;BME280;10706;49.036;12.112;2023-03-03T00:29:39;97807.41;;;0.72;82.21
21096;BME280;10706;49.036;12.112;2023-03-03T00:34:43;97806.31;;;0.58;82.52
21096;BME280;10706;49.036;12.112;2023-03-03T00:37:26;97803.84;;;0.57;82.33
21096;BME280;10706;49.036;12.112;2023-03-03T00:39:52;97802.38;;;0.54;82.14
21096;BME280;10706;49.036;12.112;2023-03-03T00:42:18;97809.31;;;0.47;82.93
21096;BME280;10706;49.036;12.112;2023-03-03T00:44:52;97814.09;;;0.44;82.35
21096;BME280;10706;49.036;12.112;2023-03-03T00:47:36;97814.09;;;0.44;83.10
21096;BME280;10706;49.036;12.112;2023-03-03T00:52:50;97807.22;;;0.34;82.48
21096;BME280;10706;49.036;12.112;2023-03-03T00:55:18;97801.63;;;0.29;82.76
21096;BME280;10706;49.036;12.112;2023-03-03T00:57:44;97812.47;;;0.26;82.99
21096;BME280;10706;49.036;12.112;2023-03-03T01:00:10;97808.91;;;0.19;82.65
21096;BME280;10706;49.036;12.112;2023-03-03T01:02:37;97802.31;;;0.23;82.60
21096;BME280;10706;49.036;12.112;2023-03-03T01:05:03;97812.66;;;0.25;82.49
21096;BME280;10706;49.036;12.112;2023-03-03T01:07:28;97809.19;;;0.24;83.10
21096;BME280;10706;49.036;12.112;2023-03-03T01:09:54;97812.00;;;0.23;82.96
21096;BME280;10706;49.036;12.112;2023-03-03T01:12:20;97804.75;;;0.33;83.61
21096;BME280;10706;49.036;12.112;2023-03-03T01:14:46;97806.56;;;0.24;83.19
21096;BME280;10706;49.036;12.112;2023-03-03T01:17:13;97795.44;;;0.14;83.10
21096;BME280;10706;49.036;12.112;2023-03-03T01:19:39;97802.50;;;0.13;83.38
21096;BME280;10706;49.036;12.112;2023-03-03T01:22:05;97801.59;;;0.37;81.85
21096;BME280;10706;49.036;12.112;2023-03-03T01:24:30;97801.13;;;0.42;81.51
21096;BME280;10706;49.036;12.112;2023-03-03T01:26:56;97803.44;;;0.21;82.48
21096;BME280;10706;49.036;12.112;2023-03-03T01:29:22;97802.81;;;0.27;82.16
21096;BME280;10706;49.036;12.112;2023-03-03T01:31:47;97804.28;;;0.21;82.56
21096;BME280;10706;49.036;12.112;2023-03-03T01:34:13;97798.72;;;0.16;82.74
21096;BME280;10706;49.036;12.112;2023-03-03T01:36:39;97789.88;;;0.01;83.01
21096;BME280;10706;49.036;12.112;2023-03-03T01:39:05;97797.28;;;-0.03;83.86
21096;BME280;10706;49.036;12.112;2023-03-03T01:41:31;97794.78;;;0.04;83.36
21096;BME280;10706;49.036;12.112;2023-03-03T01:43:58;97800.72;;;-0.03;83.23
21096;BME280;10706;49.036;12.112;2023-03-03T01:46:33;97807.44;;;-0.08;83.37
21096;BME280;10706;49.036;12.112;2023-03-03T01:56:25;97795.81;;;-0.30;84.05
21096;BME280;10706;49.036;12.112;2023-03-03T01:59:30;97802.03;;;-0.23;84.19
21096;BME280;10706;49.036;12.112;2023-03-03T02:01:57;97795.13;;;-0.08;82.89
21096;BME280;10706;49.036;12.112;2023-03-03T02:04:24;97793.50;;;-0.17;83.28
21096;BME280;10706;49.036;12.112;2023-03-03T02:06:56;97801.53;;;-0.27;83.55
21096;BME280;10706;49.036;12.112;2023-03-03T02:10:03;97796.47;;;-0.36;84.28
21096;BME280;10706;49.036;12.112;2023-03-03T02:12:48;97793.19;;;-0.38;83.77
21096;BME280;10706;49.036;12.112;2023-03-03T02:15:26;97794.50;;;-0.43;84.36
21096;BME280;10706;49.036;12.112;2023-03-03T02:17:57;97802.72;;;-0.37;84.05
21096;BME280;10706;49.036;12.112;2023-03-03T02:24:07;97796.81;;;-0.15;82.71
21096;BME280;10706;49.036;12.112;2023-03-03T02:26:38;97803.34;;;-0.19;82.47
21096;BME280;10706;49.036;12.112;2023-03-03T02:29:05;97800.88;;;-0.12;81.44
21096;BME280;10706;49.036;12.112;2023-03-03T02:31:32;97805.13;;;-0.11;81.42
21096;BME280;10706;49.036;12.112;2023-03-03T02:33:57;97799.06;;;-0.12;81.13
21096;BME280;10706;49.036;12.112;2023-03-03T02:36:27;97802.03;;;-0.23;81.15
21096;BME280;10706;49.036;12.112;2023-03-03T02:39:20;97807.28;;;-0.40;82.43
21096;BME280;10706;49.036;12.112;2023-03-03T02:44:30;97805.00;;;-0.26;81.76
21096;BME280;10706;49.036;12.112;2023-03-03T02:46:57;97807.78;;;-0.28;81.90
21096;BME280;10706;49.036;12.112;2023-03-03T02:49:26;97807.13;;;-0.46;82.52
21096;BME280;10706;49.036;12.112;2023-03-03T02:51:53;97809.91;;;-0.56;83.14
21096;BME280;10706;49.036;12.112;2023-03-03T02:54:22;97812.34;;;-0.63;83.50
21096;BME280;10706;49.036;12.112;2023-03-03T02:56:49;97814.31;;;-0.65;84.38
21096;BME280;10706;49.036;12.112;2023-03-03T02:59:15;97801.22;;;-0.73;84.04
21096;BME280;10706;49.036;12.112;2023-03-03T03:01:41;97812.31;;;-0.79;83.76
21096;BME280;10706;49.036;12.112;2023-03-03T03:04:20;97809.38;;;-0.84;83.81
21096;BME280;10706;49.036;12.112;2023-03-03T03:06:46;97807.88;;;-0.87;84.58
21096;BME280;10706;49.036;12.112;2023-03-03T03:09:14;97806.91;;;-0.86;84.02
21096;BME280;10706;49.036;12.112;2023-03-03T03:11:40;97807.06;;;-0.87;85.13
21096;BME280;10706;49.036;12.112;2023-03-03T03:14:08;97810.66;;;-0.96;84.43
21096;BME280;10706;49.036;12.112;2023-03-03T03:16:35;97810.97;;;-1.00;84.47
21096;BME280;10706;49.036;12.112;2023-03-03T03:19:02;97805.25;;;-1.03;84.95
21096;BME280;10706;49.036;12.112;2023-03-03T03:21:28;97798.03;;;-1.01;84.85
21096;BME280;10706;49.036;12.112;2023-03-03T03:23:55;97806.41;;;-0.98;84.44
21096;BME280;10706;49.036;12.112;2023-03-03T03:26:21;97813.28;;;-0.96;83.47
21096;BME280;10706;49.036;12.112;2023-03-03T03:28:48;97801.81;;;-0.95;84.25
21096;BME280;10706;49.036;12.112;2023-03-03T03:31:15;97808.56;;;-0.68;82.03
21096;BME280;10706;49.036;12.112;2023-03-03T03:33:41;97808.25;;;-0.57;81.41
21096;BME280;10706;49.036;12.112;2023-03-03T03:36:07;97803.66;;;-0.71;81.98
21096;BME280;10706;49.036;12.112;2023-03-03T03:38:35;97811.22;;;-0.60;82.04
21096;BME280;10706;49.036;12.112;2023-03-03T03:41:02;97804.66;;;-0.64;81.23
21096;BME280;10706;49.036;12.112;2023-03-03T03:43:28;97808.22;;;-0.82;82.95
21096;BME280;10706;49.036;12.112;2023-03-03T03:45:54;97808.38;;;-0.91;83.25
21096;BME280;10706;49.036;12.112;2023-03-03T03:48:20;97805.06;;;-1.02;83.58
21096;BME280;10706;49.036;12.112;2023-03-03T03:50:49;97800.97;;;-1.04;83.54
21096;BME280;10706;49.036;12.112;2023-03-03T03:53:16;97808.84;;;-1.04;82.85
21096;BME280;10706;49.036;12.112;2023-03-03T03:55:43;97808.03;;;-0.88;82.40
21096;BME280;10706;49.036;12.112;2023-03-03T03:58:17;97813.13;;;-0.87;82.05
21096;BME280;10706;49.036;12.112;2023-03-03T04:00:44;97810.19;;;-0.92;82.27
21096;BME280;10706;49.036;12.112;2023-03-03T04:03:11;97813.28;;;-0.88;81.88
21096;BME280;10706;49.036;12.112;2023-03-03T04:05:39;97809.03;;;-0.98;82.92
21096;BME280;10706;49.036;12.112;2023-03-03T04:08:05;97815.75;;;-0.95;81.88
21096;BME280;10706;49.036;12.112;2023-03-03T04:10:31;97817.84;;;-0.99;82.31
21096;BME280;10706;49.036;12.112;2023-03-03T04:12:56;97815.91;;;-0.96;82.00
21096;BME280;10706;49.036;12.112;2023-03-03T04:15:22;97819.97;;;-0.94;81.76
21096;BME280;10706;49.036;12.112;2023-03-03T04:17:48;97823.44;;;-0.93;82.15
21096;BME280;10706;49.036;12.112;2023-03-03T04:20:14;97827.22;;;-0.80;80.29
21096;BME280;10706;49.036;12.112;2023-03-03T04:22:41;97821.03;;;-0.79;81.22
21096;BME280;10706;49.036;12.112;2023-03-03T04:25:10;97817.69;;;-0.97;81.28
21096;BME280;10706;49.036;12.112;2023-03-03T04:27:37;97821.66;;;-0.85;80.69
21096;BME280;10706;49.036;12.112;2023-03-03T04:30:05;97826.09;;;-0.77;81.10
21096;BME280;10706;49.036;12.112;2023-03-03T04:32:32;97818.72;;;-0.82;81.41
21096;BME280;10706;49.036;12.112;2023-03-03T04:35:01;97819.97;;;-0.94;81.36
21096;BME280;10706;49.036;12.112;2023-03-03T04:37:27;97822.09;;;-1.06;82.41
21096;BME280;10706;49.036;12.112;2023-03-03T04:39:53;97822.44;;;-0.92;81.41
21096;BME280;10706;49.036;12.112;2023-03-03T04:42:18;97828.84;;;-0.87;81.54
21096;BME280;10706;49.036;12.112;2023-03-03T04:44:44;97821.34;;;-0.82;80.46
21096;BME280;10706;49.036;12.112;2023-03-03T04:47:10;97828.88;;;-0.79;80.94
21096;BME280;10706;49.036;12.112;2023-03-03T04:49:36;97827.25;;;-0.71;80.57
21096;BME280;10706;49.036;12.112;2023-03-03T04:52:01;97820.03;;;-0.77;80.74
21096;BME280;10706;49.036;12.112;2023-03-03T04:54:27;97833.13;;;-0.86;81.15
21096;BME280;10706;49.036;12.112;2023-03-03T04:56:53;97836.56;;;-0.77;81.52
21096;BME280;10706;49.036;12.112;2023-03-03T04:59:18;97839.56;;;-0.64;80.83
21096;BME280;10706;49.036;12.112;2023-03-03T05:01:44;97839.56;;;-0.55;80.08
21096;BME280;10706;49.036;12.112;2023-03-03T05:04:11;97843.16;;;-0.56;80.70
21096;BME280;10706;49.036;12.112;2023-03-03T05:06:36;97838.72;;;-0.64;80.47
21096;BME280;10706;49.036;12.112;2023-03-03T05:09:03;97842.19;;;-0.55;80.01
21096;BME280;10706;49.036;12.112;2023-03-03T05:11:28;97845.13;;;-0.67;80.09
21096;BME280;10706;49.036;12.112;2023-03-03T05:13:54;97841.69;;;-0.67;80.25
21096;BME280;10706;49.036;12.112;2023-03-03T05:16:20;97841.81;;;-0.77;81.09
21096;BME280;10706;49.036;12.112;2023-03-03T05:18:46;97845.78;;;-0.65;80.98
21096;BME280;10706;49.036;12.112;2023-03-03T05:21:13;97843.81;;;-0.71;80.61
21096;BME280;10706;49.036;12.112;2023-03-03T05:23:38;97843.16;;;-0.65;80.30
21096;BME280;10706;49.036;12.112;2023-03-03T05:26:04;97842.50;;;-0.67;80.94
21096;BME280;10706;49.036;12.112;2023-03-03T05:28:32;97852.03;;;-0.66;80.98
21096;BME280;10706;49.036;12.112;2023-03-03T05:30:58;97851.97;;;-0.74;80.64
21096;BME280;10706;49.036;12.112;2023-03-03T05:33:24;97859.34;;;-0.77;81.89
21096;BME280;10706;49.036;12.112;2023-03-03T05:35:54;97858.22;;;-0.67;81.25
21096;BME280;10706;49.036;12.112;2023-03-03T05:38:21;97861.00;;;-0.68;80.94
21096;BME280;10706;49.036;12.112;2023-03-03T05:40:47;97859.03;;;-0.66;81.41
21096;BME280;10706;49.036;12.112;2023-03-03T05:43:12;97862.66;;;-0.59;80.64
21096;BME280;10706;49.036;12.112;2023-03-03T05:45:38;97858.78;;;-0.47;79.91
21096;BME280;10706;49.036;12.112;2023-03-03T05:48:04;97863.34;;;-0.41;79.60
21096;BME280;10706;49.036;12.112;2023-03-03T05:50:30;97855.50;;;-0.41;79.56
21096;BME280;10706;49.036;12.112;2023-03-03T05:52:56;97868.56;;;-0.57;80.66
21096;BME280;10706;49.036;12.112;2023-03-03T05:55:22;97861.84;;;-0.60;80.43
21096;BME280;10706;49.036;12.112;2023-03-03T05:57:48;97867.59;;;-0.56;80.54
21096;BME280;10706;49.036;12.112;2023-03-03T06:00:15;97873.50;;;-0.54;80.60
21096;BME280;10706;49.036;12.112;2023-03-03T06:02:41;97871.81;;;-0.71;81.10
21096;BME280;10706;49.036;12.112;2023-03-03T06:05:08;97878.66;;;-0.87;81.94
21096;BME280;10706;49.036;12.112;2023-03-03T06:07:34;97884.22;;;-0.90;81.46
21096;BME280;10706;49.036;12.112;2023-03-03T06:10:00;97885.06;;;-0.81;82.02
21096;BME280;10706;49.036;12.112;2023-03-03T06:12:26;97893.13;;;-0.74;81.16
21096;BME280;10706;49.036;12.112;2023-03-03T06:14:51;97886.50;;;-0.87;81.00
21096;BME280;10706;49.036;12.112;2023-03-03T06:17:17;97882.03;;;-1.03;81.56
21096;BME280;10706;49.036;12.112;2023-03-03T06:19:43;97887.47;;;-0.96;81.09
21096;BME280;10706;49.036;12.112;2023-03-03T06:22:09;97889.78;;;-0.93;82.06
21096;BME280;10706;49.036;12.112;2023-03-03T06:24:34;97882.13;;;-0.86;81.85
21096;BME280;10706;49.036;12.112;2023-03-03T06:27:00;97885.69;;;-0.87;81.86
21096;BME280;10706;49.036;12.112;2023-03-03T06:29:27;97890.81;;;-0.77;81.04
21096;BME280;10706;49.036;12.112;2023-03-03T06:31:54;97895.91;;;-0.76;81.05
21096;BME280;10706;49.036;12.112;2023-03-03T06:34:19;97897.63;;;-0.93;81.67
21096;BME280;10706;49.036;12.112;2023-03-03T06:36:45;97902.75;;;-0.83;81.53
21096;BME280;10706;49.036;12.112;2023-03-03T06:39:11;97898.38;;;-0.74;81.41
21096;BME280;10706;49.036;12.112;2023-03-03T06:41:37;97896.84;;;-0.77;80.65
21096;BME280;10706;49.036;12.112;2023-03-03T06:44:03;97906.88;;;-0.72;80.90
21096;BME280;10706;49.036;12.112;2023-03-03T06:46:32;97908.41;;;-0.62;79.97
21096;BME280;10706;49.036;12.112;2023-03-03T06:52:29;97922.97;;;-0.59;79.72
21096;BME280;10706;49.036;12.112;2023-03-03T07:06:45;97931.66;;;-0.67;79.88
21096;BME280;10706;49.036;12.112;2023-03-03T07:10:19;97938.06;;;-0.61;80.06
21096;BME280;10706;49.036;12.112;2023-03-03T07:16:30;97943.28;;;-0.61;80.15
21096;BME280;10706;49.036;12.112;2023-03-03T07:19:07;97946.28;;;-0.40;79.34
21096;BME280;10706;49.036;12.112;2023-03-03T07:22:23;97949.97;;;-0.24;78.60
21096;BME280;10706;49.036;12.112;2023-03-03T07:24:59;97946.38;;;-0.15;78.23
21096;BME280;10706;49.036;12.112;2023-03-03T07:27:30;97955.41;;;-0.09;79.23
21096;BME280;10706;49.036;12.112;2023-03-03T07:30:27;97950.50;;;0.04;78.57
21096;BME280;10706;49.036;12.112;2023-03-03T07:32:56;97946.72;;;0.07;78.39
21096;BME280;10706;49.036;12.112;2023-03-03T07:35:35;97954.28;;;0.10;77.83
21096;BME280;10706;49.036;12.112;2023-03-03T07:38:22;97952.94;;;0.55;75.65
21096;BME280;10706;49.036;12.112;2023-03-03T07:40:53;97951.13;;;0.64;75.65
21096;BME280;10706;49.036;12.112;2023-03-03T07:43:39;97953.09;;;0.62;75.11
21096;BME280;10706;49.036;12.112;2023-03-03T07:46:26;97945.38;;;0.68;74.80
21096;BME280;10706;49.036;12.112;2023-03-03T07:48:56;97953.59;;;0.65;74.55
21096;BME280;10706;49.036;12.112;2023-03-03T07:51:39;97965.69;;;0.91;74.80
21096;BME280;10706;49.036;12.112;2023-03-03T08:03:15;97984.06;;;1.07;73.83
21096;BME280;10706;49.036;12.112;2023-03-03T08:05:44;97988.59;;;1.30;74.12
21096;BME280;10706;49.036;12.112;2023-03-03T08:13:21;97972.34;;;1.66;72.99
21096;BME280;10706;49.036;12.112;2023-03-03T08:18:48;97971.53;;;1.88;70.62
21096;BME280;10706;49.036;12.112;2023-03-03T08:21:23;97971.56;;;2.11;70.76
21096;BME280;10706;49.036;12.112;2023-03-03T08:23:50;97970.28;;;2.07;70.32
21096;BME280;10706;49.036;12.112;2023-03-03T08:26:38;97973.44;;;2.26;70.23
21096;BME280;10706;49.036;12.112;2023-03-03T08:29:04;97974.44;;;2.48;69.19
21096;BME280;10706;49.036;12.112;2023-03-03T08:31:30;97978.16;;;2.30;70.35
21096;BME280;10706;49.036;12.112;2023-03-03T08:33:56;97980.94;;;2.37;69.38
21096;BME280;10706;49.036;12.112;2023-03-03T08:36:23;97987.91;;;2.30;69.62
21096;BME280;10706;49.036;12.112;2023-03-03T08:38:49;97990.59;;;2.45;69.34
21096;BME280;10706;49.036;12.112;2023-03-03T08:41:15;97994.47;;;2.72;69.21
21096;BME280;10706;49.036;12.112;2023-03-03T08:43:40;97993.84;;;2.85;68.76
21096;BME280;10706;49.036;12.112;2023-03-03T08:46:07;97987.53;;;3.09;68.64
21096;BME280;10706;49.036;12.112;2023-03-03T08:48:35;97987.81;;;3.14;66.65
21096;BME280;10706;49.036;12.112;2023-03-03T08:51:01;97993.16;;;3.21;66.69
21096;BME280;10706;49.036;12.112;2023-03-03T08:53:27;98003.47;;;3.30;64.15
21096;BME280;10706;49.036;12.112;2023-03-03T08:55:53;98008.47;;;3.40;65.50
21096;BME280;10706;49.036;12.112;2023-03-03T08:58:20;98004.34;;;3.67;63.96
21096;BME280;10706;49.036;12.112;2023-03-03T09:00:46;98011.09;;;3.70;63.72
21096;BME280;10706;49.036;12.112;2023-03-03T09:03:12;98009.22;;;3.85;64.12
21096;BME280;10706;49.036;12.112;2023-03-03T09:05:39;98013.03;;;3.83;63.66
21096;BME280;10706;49.036;12.112;2023-03-03T09:08:07;98020.91;;;3.76;64.66
21096;BME280;10706;49.036;12.112;2023-03-03T09:10:33;98018.75;;;4.01;64.12
21096;BME280;10706;49.036;12.112;2023-03-03T09:13:14;98015.63;;;4.13;61.88
21096;BME280;10706;49.036;12.112;2023-03-03T09:15:44;98016.91;;;4.17;61.91
21096;BME280;10706;49.036;12.112;2023-03-03T09:18:21;98008.34;;;4.36;61.54
21096;BME280;10706;49.036;12.112;2023-03-03T09:20:53;98016.84;;;4.32;61.47
21096;BME280;10706;49.036;12.112;2023-03-03T09:26:46;98010.69;;;4.67;60.78
21096;BME280;10706;49.036;12.112;2023-03-03T09:29:35;98012.69;;;4.65;62.21
21096;BME280;10706;49.036;12.112;2023-03-03T09:32:34;98005.47;;;4.53;61.55
21096;BME280;10706;49.036;12.112;2023-03-03T09:35:36;98007.25;;;4.52;62.57
21096;BME280;10706;49.036;12.112;2023-03-03T09:38:30;98007.25;;;4.52;61.34
21096;BME280;10706;49.036;12.112;2023-03-03T09:41:22;98016.88;;;4.81;61.21
21096;BME280;10706;49.036;12.112;2023-03-03T09:44:51;98014.97;;;4.97;61.70
21096;BME280;10706;49.036;12.112;2023-03-03T09:47:43;98000.84;;;5.18;59.97
21096;BME280;10706;49.036;12.112;2023-03-03T09:50:35;97996.13;;;5.41;60.35
21096;BME280;10706;49.036;12.112;2023-03-03T09:58:48;98014.25;;;5.86;58.73
21096;BME280;10706;49.036;12.112;2023-03-03T10:04:36;98001.50;;;6.10;58.31
21096;BME280;10706;49.036;12.112;2023-03-03T10:07:33;97996.06;;;6.31;59.02
21096;BME280;10706;49.036;12.112;2023-03-03T10:10:38;98005.06;;;6.37;59.67
21096;BME280;10706;49.036;12.112;2023-03-03T10:19:02;98007.72;;;6.50;56.77
21096;BME280;10706;49.036;12.112;2023-03-03T10:21:51;98006.91;;;6.36;58.05
21096;BME280;10706;49.036;12.112;2023-03-03T10:24:37;98018.13;;;6.38;58.58
21096;BME280;10706;49.036;12.112;2023-03-03T11:07:41;97990.78;;;8.22;54.22
21096;BME280;10706;49.036;12.112;2023-03-03T11:13:35;97994.97;;;8.04;55.01
21096;BME280;10706;49.036;12.112;2023-03-03T11:19:42;97993.91;;;7.73;55.17
21096;BME280;10706;49.036;12.112;2023-03-03T11:28:07;97985.94;;;8.50;53.70
21096;BME280;10706;49.036;12.112;2023-03-03T11:31:06;97992.91;;;8.13;53.21
21096;BME280;10706;49.036;12.112;2023-03-03T11:33:57;97992.78;;;8.33;52.90
21096;BME280;10706;49.036;12.112;2023-03-03T11:39:13;97985.63;;;8.90;52.30
21096;BME280;10706;49.036;12.112;2023-03-03T11:44:28;97965.84;;;8.54;52.52
21096;BME280;10706;49.036;12.112;2023-03-03T11:49:47;97972.31;;;8.90;52.65
21096;BME280;10706;49.036;12.112;2023-03-03T11:53:04;97968.81;;;9.15;51.96
21096;BME280;10706;49.036;12.112;2023-03-03T11:55:35;97965.84;;;9.23;50.34
21096;BME280;10706;49.036;12.112;2023-03-03T11:58:19;97974.31;;;9.39;50.33
21096;BME280;10706;49.036;12.112;2023-03-03T12:00:53;97968.84;;;9.52;50.70
21096;BME280;10706;49.036;12.112;2023-03-03T12:03:36;97959.72;;;9.41;51.33
21096;BME280;10706;49.036;12.112;2023-03-03T12:12:18;97962.03;;;9.38;50.14
21096;BME280;10706;49.036;12.112;2023-03-03T12:15:18;97967.66;;;9.48;51.27
21096;BME280;10706;49.036;12.112;2023-03-03T12:24:24;97949.09;;;9.90;49.41
21096;BME280;10706;49.036;12.112;2023-03-03T12:27:00;97948.16;;;10.26;48.70
21096;BME280;10706;49.036;12.112;2023-03-03T12:30:09;97939.38;;;10.92;46.86
21096;BME280;10706;49.036;12.112;2023-03-03T12:36:44;97930.25;;;11.52;44.63
21096;BME280;10706;49.036;12.112;2023-03-03T12:39:43;97920.66;;;12.08;44.31
21096;BME280;10706;49.036;12.112;2023-03-03T12:45:22;97916.72;;;13.17;41.23
21096;BME280;10706;49.036;12.112;2023-03-03T12:48:18;97910.50;;;12.56;42.89
21096;BME280;10706;49.036;12.112;2023-03-03T12:56:56;97899.59;;;13.57;40.48
21096;BME280;10706;49.036;12.112;2023-03-03T13:00:00;97904.94;;;13.79;39.75
21096;BME280;10706;49.036;12.112;2023-03-03T13:03:03;97903.63;;;12.99;40.73
21096;BME280;10706;49.036;12.112;2023-03-03T13:05:57;97893.47;;;13.62;39.59
21096;BME280;10706;49.036;12.112;2023-03-03T13:08:43;97908.56;;;14.17;38.77
21096;BME280;10706;49.036;12.112;2023-03-03T13:14:23;97893.25;;;13.91;38.37
21096;BME280;10706;49.036;12.112;2023-03-03T13:17:16;97899.38;;;13.20;39.89
21096;BME280;10706;49.036;12.112;2023-03-03T13:20:00;97891.84;;;14.43;39.15
21096;BME280;10706;49.036;12.112;2023-03-03T13:22:40;97897.97;;;15.71;35.13
21096;BME280;10706;49.036;12.112;2023-03-03T13:28:00;97890.56;;;15.30;35.98
21096;BME280;10706;49.036;12.112;2023-03-03T13:30:35;97885.47;;;16.28;34.82
21096;BME280;10706;49.036;12.112;2023-03-03T13:33:26;97887.06;;;16.03;34.28
21096;BME280;10706;49.036;12.112;2023-03-03T13:36:00;97892.97;;;14.79;36.41
21096;BME280;10706;49.036;12.112;2023-03-03T13:41:47;97904.00;;;13.69;38.18
21096;BME280;10706;49.036;12.112;2023-03-03T13:44:33;97901.69;;;13.77;38.54
21096;BME280;10706;49.036;12.112;2023-03-03T13:52:27;97893.00;;;15.37;35.51
21096;BME280;10706;49.036;12.112;2023-03-03T13:55:13;97888.19;;;14.91;35.63
21096;BME280;10706;49.036;12.112;2023-03-03T14:01:02;97882.75;;;15.29;35.55
21096;BME280;10706;49.036;12.112;2023-03-03T14:07:06;97874.91;;;16.01;34.54
21096;BME280;10706;49.036;12.112;2023-03-03T14:13:08;97877.72;;;18.08;31.69
21096;BME280;10706;49.036;12.112;2023-03-03T14:16:55;97868.88;;;18.37;31.83
21096;BME280;10706;49.036;12.112;2023-03-03T14:19:08;97865.81;;;16.43;33.47
21096;BME280;10706;49.036;12.112;2023-03-03T14:21:46;97867.94;;;16.46;34.18
21096;BME280;10706;49.036;12.112;2023-03-03T14:24:20;97861.44;;;15.17;35.18
21096;BME280;10706;49.036;12.112;2023-03-03T14:26:52;97860.63;;;15.80;35.22
21096;BME280;10706;49.036;12.112;2023-03-03T14:31:48;97859.84;;;16.66;32.54
21096;BME280;10706;49.036;12.112;2023-03-03T14:40:21;97853.19;;;17.44;31.73
21096;BME280;10706;49.036;12.112;2023-03-03T14:45:35;97848.13;;;17.33;31.85
21096;BME280;10706;49.036;12.112;2023-03-03T14:48:15;97847.47;;;16.19;33.93
21096;BME280;10706;49.036;12.112;2023-03-03T14:50:59;97844.25;;;16.17;33.32
21096;BME280;10706;49.036;12.112;2023-03-03T14:53:43;97837.06;;;14.86;35.90
21096;BME280;10706;49.036;12.112;2023-03-03T14:56:34;97830.06;;;15.48;35.42
21096;BME280;10706;49.036;12.112;2023-03-03T14:59:23;97834.44;;;14.54;36.08
21096;BME280;10706;49.036;12.112;2023-03-03T15:04:40;97830.53;;;15.25;36.19
21096;BME280;10706;49.036;12.112;2023-03-03T15:07:30;97827.25;;;14.27;36.25
21096;BME280;10706;49.036;12.112;2023-03-03T15:09:57;97826.81;;;14.41;36.12
21096;BME280;10706;49.036;12.112;2023-03-03T15:12:35;97826.69;;;13.93;36.75
21096;BME280;10706;49.036;12.112;2023-03-03T15:15:16;97830.44;;;13.92;37.73
21096;BME280;10706;49.036;12.112;2023-03-03T15:20:42;97826.53;;;13.50;37.11
21096;BME280;10706;49.036;12.112;2023-03-03T15:34:56;97829.66;;;12.25;38.88
21096;BME280;10706;49.036;12.112;2023-03-03T15:58:59;97838.56;;;11.39;40.30
21096;BME280;10706;49.036;12.112;2023-03-03T16:01:41;97831.88;;;11.25;41.28
21096;BME280;10706;49.036;12.112;2023-03-03T16:04:19;97837.47;;;11.00;42.23
21096;BME280;10706;49.036;12.112;2023-03-03T16:10:03;97841.94;;;10.82;40.78
21096;BME280;10706;49.036;12.112;2023-03-03T16:13:20;97847.06;;;10.72;41.10
21096;BME280;10706;49.036;12.112;2023-03-03T16:27:27;97856.34;;;10.04;42.79
21096;BME280;10706;49.036;12.112;2023-03-03T16:33:34;97862.41;;;9.69;43.14
21096;BME280;10706;49.036;12.112;2023-03-03T16:36:26;97862.72;;;9.61;44.31
21096;BME280;10706;49.036;12.112;2023-03-03T16:41:54;97878.53;;;9.25;44.73
21096;BME280;10706;49.036;12.112;2023-03-03T16:53:50;97885.69;;;8.69;46.98
21096;BME280;10706;49.036;12.112;2023-03-03T16:56:43;97886.66;;;8.50;46.86
21096;BME280;10706;49.036;12.112;2023-03-03T17:02:43;97887.50;;;8.18;49.15
21096;BME280;10706;49.036;12.112;2023-03-03T17:05:40;97891.88;;;8.06;50.08
21096;BME280;10706;49.036;12.112;2023-03-03T17:11:59;97897.78;;;7.76;51.12
21096;BME280;10706;49.036;12.112;2023-03-03T17:14:54;97896.69;;;7.91;49.93
21096;BME280;10706;49.036;12.112;2023-03-03T17:17:37;97904.94;;;7.76;50.08
21096;BME280;10706;49.036;12.112;2023-03-03T17:20:45;97911.13;;;7.63;51.42
21096;BME280;10706;49.036;12.112;2023-03-03T17:24:02;97905.88;;;7.50;51.82
21096;BME280;10706;49.036;12.112;2023-03-03T17:33:03;97917.66;;;7.09;53.49
21096;BME280;10706;49.036;12.112;2023-03-03T17:36:13;97927.09;;;6.91;52.91
21096;BME280;10706;49.036;12.112;2023-03-03T17:42:01;97931.81;;;6.69;55.23
21096;BME280;10706;49.036;12.112;2023-03-03T17:44:59;97942.63;;;6.68;55.34
21096;BME280;10706;49.036;12.112;2023-03-03T17:53:55;97948.34;;;6.58;55.40
21096;BME280;10706;49.036;12.112;2023-03-03T17:56:56;97951.59;;;6.40;55.42
21096;BME280;10706;49.036;12.112;2023-03-03T17:59:54;97952.03;;;6.37;56.26
21096;BME280;10706;49.036;12.112;2023-03-03T18:02:41;97955.25;;;6.32;56.45
21096;BME280;10706;49.036;12.112;2023-03-03T18:08:57;97957.25;;;6.03;57.06
21096;BME280;10706;49.036;12.112;2023-03-03T18:12:14;97954.38;;;5.98;57.88
21096;BME280;10706;49.036;12.112;2023-03-03T18:15:25;97961.84;;;5.81;58.58
21096;BME280;10706;49.036;12.112;2023-03-03T18:18:25;97960.19;;;5.67;59.20
21096;BME280;10706;49.036;12.112;2023-03-03T18:21:21;97964.41;;;5.55;59.89
21096;BME280;10706;49.036;12.112;2023-03-03T18:23:48;97978.41;;;5.42;60.77
21096;BME280;10706;49.036;12.112;2023-03-03T18:29:16;97978.50;;;5.20;60.59
21096;BME280;10706;49.036;12.112;2023-03-03T18:42:38;97984.50;;;5.07;62.27